sensor_id;sensor_type;location;lat;lon;timestamp;P1;durP1;ratioP1;P2;durP2;ratioP2
30862;SDS011;17573;55.922;37.540;2023-06-26T00:01:17;19.50;;;14.55;;
30862;SDS011;17573;55.922;37.540;2023-06-26T00:03:46;19.58;;;14.88;;
30862;SDS011;17573;55.922;37.540;2023-06-26T00:06:12;28.27;;;14.95;;
30862;SDS011;17573;55.922;37.540;2023-06-26T00:08:38;23.10;;;14.95;;
30862;SDS011;17573;55.922;37.540;2023-06-26T00:11:04;26.17;;;14.40;;
30862;SDS011;17573;55.922;37.540;2023-06-26T00:13:30;22.40;;;13.82;;
30862;SDS011;17573;55.922;37.540;2023-06-26T00:15:56;30.73;;;14.32;;
30862;SDS011;17573;55.922;37.540;2023-06-26T00:18:21;26.70;;;13.82;;
30862;SDS011;17573;55.922;37.540;2023-06-26T00:20:48;24.70;;;14.55;;
30862;SDS011;17573;55.922;37.540;2023-06-26T00:23:16;22.02;;;13.35;;
30862;SDS011;17573;55.922;37.540;2023-06-26T00:25:42;22.40;;;14.30;;
30862;SDS011;17573;55.922;37.540;2023-06-26T00:28:08;28.70;;;13.82;;
30862;SDS011;17573;55.922;37.540;2023-06-26T00:30:37;21.35;;;14.70;;
30862;SDS011;17573;55.922;37.540;2023-06-26T00:33:02;21.35;;;14.48;;
30862;SDS011;17573;55.922;37.540;2023-06-26T00:35:30;26.95;;;15.77;;
30862;SDS011;17573;55.922;37.540;2023-06-26T00:37:56;23.40;;;14.52;;
30862;SDS011;17573;55.922;37.540;2023-06-26T00:40:21;20.23;;;13.93;;
30862;SDS011;17573;55.922;37.540;2023-06-26T00:42:47;29.90;;;14.45;;
30862;SDS011;17573;55.922;37.540;2023-06-26T00:45:13;17.52;;;14.02;;
30862;SDS011;17573;55.922;37.540;2023-06-26T00:47:39;26.08;;;14.73;;
30862;SDS011;17573;55.922;37.540;2023-06-26T00:50:05;24.65;;;14.73;;
30862;SDS011;17573;55.922;37.540;2023-06-26T00:52:31;36.97;;;14.15;;
30862;SDS011;17573;55.922;37.540;2023-06-26T00:54:58;22.38;;;13.90;;
30862;SDS011;17573;55.922;37.540;2023-06-26T00:57:24;23.35;;;14.65;;
30862;SDS011;17573;55.922;37.540;2023-06-26T00:59:52;29.02;;;14.38;;
30862;SDS011;17573;55.922;37.540;2023-06-26T01:02:20;24.88;;;14.90;;
30862;SDS011;17573;55.922;37.540;2023-06-26T01:04:49;25.92;;;14.85;;
30862;SDS011;17573;55.922;37.540;2023-06-26T01:07:15;25.58;;;14.98;;
30862;SDS011;17573;55.922;37.540;2023-06-26T01:09:44;19.88;;;14.98;;
30862;SDS011;17573;55.922;37.540;2023-06-26T01:12:11;24.10;;;16.00;;
30862;SDS011;17573;55.922;37.540;2023-06-26T01:14:37;20.15;;;15.27;;
30862;SDS011;17573;55.922;37.540;2023-06-26T01:17:03;27.52;;;17.17;;
30862;SDS011;17573;55.922;37.540;2023-06-26T01:19:30;26.23;;;15.82;;
30862;SDS011;17573;55.922;37.540;2023-06-26T01:24:41;27.58;;;16.73;;
30862;SDS011;17573;55.922;37.540;2023-06-26T01:27:10;27.50;;;17.58;;
30862;SDS011;17573;55.922;37.540;2023-06-26T01:29:37;33.78;;;17.63;;
30862;SDS011;17573;55.922;37.540;2023-06-26T01:32:06;32.20;;;19.35;;
30862;SDS011;17573;55.922;37.540;2023-06-26T01:34:31;28.08;;;18.88;;
30862;SDS011;17573;55.922;37.540;2023-06-26T01:36:57;37.42;;;19.58;;
30862;SDS011;17573;55.922;37.540;2023-06-26T01:39:25;33.72;;;19.00;;
30862;SDS011;17573;55.922;37.540;2023-06-26T01:41:50;33.30;;;20.38;;
30862;SDS011;17573;55.922;37.540;2023-06-26T01:44:18;32.13;;;18.80;;
30862;SDS011;17573;55.922;37.540;2023-06-26T01:54:50;28.58;;;17.45;;
30862;SDS011;17573;55.922;37.540;2023-06-26T01:57:20;30.55;;;19.55;;
30862;SDS011;17573;55.922;37.540;2023-06-26T01:59:47;31.17;;;19.73;;
30862;SDS011;17573;55.922;37.540;2023-06-26T02:02:14;44.85;;;24.10;;
30862;SDS011;17573;55.922;37.540;2023-06-26T02:04:40;31.30;;;20.58;;
30862;SDS011;17573;55.922;37.540;2023-06-26T02:07:06;33.95;;;21.92;;
30862;SDS011;17573;55.922;37.540;2023-06-26T02:09:32;42.80;;;23.40;;
30862;SDS011;17573;55.922;37.540;2023-06-26T02:11:57;45.45;;;21.15;;
30862;SDS011;17573;55.922;37.540;2023-06-26T02:14:24;27.05;;;18.10;;
30862;SDS011;17573;55.922;37.540;2023-06-26T02:16:50;31.33;;;19.23;;
30862;SDS011;17573;55.922;37.540;2023-06-26T02:19:16;27.90;;;18.45;;
30862;SDS011;17573;55.922;37.540;2023-06-26T02:22:06;55.25;;;23.48;;
30862;SDS011;17573;55.922;37.540;2023-06-26T02:24:32;87.20;;;24.15;;
30862;SDS011;17573;55.922;37.540;2023-06-26T02:26:59;65.53;;;26.88;;
30862;SDS011;17573;55.922;37.540;2023-06-26T02:29:25;41.95;;;24.55;;
30862;SDS011;17573;55.922;37.540;2023-06-26T02:31:50;51.33;;;22.88;;
30862;SDS011;17573;55.922;37.540;2023-06-26T02:34:16;38.67;;;23.42;;
30862;SDS011;17573;55.922;37.540;2023-06-26T02:36:42;44.30;;;24.98;;
30862;SDS011;17573;55.922;37.540;2023-06-26T02:39:07;52.58;;;26.48;;
30862;SDS011;17573;55.922;37.540;2023-06-26T02:41:33;47.80;;;23.45;;
30862;SDS011;17573;55.922;37.540;2023-06-26T02:44:00;52.70;;;22.77;;
30862;SDS011;17573;55.922;37.540;2023-06-26T02:46:26;43.65;;;22.33;;
30862;SDS011;17573;55.922;37.540;2023-06-26T02:48:52;43.72;;;20.88;;
30862;SDS011;17573;55.922;37.540;2023-06-26T02:51:18;33.08;;;21.15;;
30862;SDS011;17573;55.922;37.540;2023-06-26T02:53:44;36.17;;;18.00;;
30862;SDS011;17573;55.922;37.540;2023-06-26T02:56:09;28.95;;;19.88;;
30862;SDS011;17573;55.922;37.540;2023-06-26T02:58:36;28.30;;;19.90;;
30862;SDS011;17573;55.922;37.540;2023-06-26T03:01:02;32.45;;;19.58;;
30862;SDS011;17573;55.922;37.540;2023-06-26T03:03:27;30.88;;;20.30;;
30862;SDS011;17573;55.922;37.540;2023-06-26T03:05:53;23.30;;;18.92;;
30862;SDS011;17573;55.922;37.540;2023-06-26T03:08:19;29.65;;;17.02;;
30862;SDS011;17573;55.922;37.540;2023-06-26T03:10:45;34.38;;;18.73;;
30862;SDS011;17573;55.922;37.540;2023-06-26T03:13:11;39.40;;;20.35;;
30862;SDS011;17573;55.922;37.540;2023-06-26T03:15:37;44.25;;;21.33;;
30862;SDS011;17573;55.922;37.540;2023-06-26T03:18:02;35.88;;;20.23;;
30862;SDS011;17573;55.922;37.540;2023-06-26T03:20:28;44.90;;;24.73;;
30862;SDS011;17573;55.922;37.540;2023-06-26T03:22:56;42.53;;;25.27;;
30862;SDS011;17573;55.922;37.540;2023-06-26T03:25:22;35.17;;;22.90;;
30862;SDS011;17573;55.922;37.540;2023-06-26T03:27:53;41.15;;;23.85;;
30862;SDS011;17573;55.922;37.540;2023-06-26T03:30:19;30.15;;;22.10;;
30862;SDS011;17573;55.922;37.540;2023-06-26T03:32:48;41.50;;;23.50;;
30862;SDS011;17573;55.922;37.540;2023-06-26T03:35:14;41.65;;;23.35;;
30862;SDS011;17573;55.922;37.540;2023-06-26T03:37:40;42.90;;;23.42;;
30862;SDS011;17573;55.922;37.540;2023-06-26T03:40:06;44.47;;;22.00;;
30862;SDS011;17573;55.922;37.540;2023-06-26T03:42:32;36.85;;;22.88;;
30862;SDS011;17573;55.922;37.540;2023-06-26T03:44:58;36.17;;;20.65;;
30862;SDS011;17573;55.922;37.540;2023-06-26T03:47:26;38.70;;;22.50;;
30862;SDS011;17573;55.922;37.540;2023-06-26T03:49:52;33.97;;;20.92;;
30862;SDS011;17573;55.922;37.540;2023-06-26T03:52:18;35.17;;;21.52;;
30862;SDS011;17573;55.922;37.540;2023-06-26T03:54:44;33.65;;;21.73;;
30862;SDS011;17573;55.922;37.540;2023-06-26T03:57:10;27.15;;;20.73;;
30862;SDS011;17573;55.922;37.540;2023-06-26T03:59:36;33.05;;;20.70;;
30862;SDS011;17573;55.922;37.540;2023-06-26T04:02:02;35.88;;;22.08;;
30862;SDS011;17573;55.922;37.540;2023-06-26T04:04:28;38.95;;;22.92;;
30862;SDS011;17573;55.922;37.540;2023-06-26T04:06:55;42.05;;;20.90;;
30862;SDS011;17573;55.922;37.540;2023-06-26T04:09:21;35.28;;;19.77;;
30862;SDS011;17573;55.922;37.540;2023-06-26T04:11:46;51.85;;;22.70;;
30862;SDS011;17573;55.922;37.540;2023-06-26T04:14:12;30.77;;;19.77;;
30862;SDS011;17573;55.922;37.540;2023-06-26T04:16:38;35.05;;;22.33;;
30862;SDS011;17573;55.922;37.540;2023-06-26T04:19:04;28.75;;;20.20;;
30862;SDS011;17573;55.922;37.540;2023-06-26T04:21:30;33.60;;;19.00;;
30862;SDS011;17573;55.922;37.540;2023-06-26T04:23:56;32.22;;;19.08;;
30862;SDS011;17573;55.922;37.540;2023-06-26T04:26:21;31.67;;;20.35;;
30862;SDS011;17573;55.922;37.540;2023-06-26T04:28:47;32.28;;;19.33;;
30862;SDS011;17573;55.922;37.540;2023-06-26T04:31:13;29.92;;;21.15;;
30862;SDS011;17573;55.922;37.540;2023-06-26T04:33:39;37.60;;;20.85;;
30862;SDS011;17573;55.922;37.540;2023-06-26T04:36:05;40.72;;;20.13;;
30862;SDS011;17573;55.922;37.540;2023-06-26T04:38:33;38.60;;;20.27;;
30862;SDS011;17573;55.922;37.540;2023-06-26T04:41:00;42.35;;;21.10;;
30862;SDS011;17573;55.922;37.540;2023-06-26T04:43:26;44.22;;;21.80;;
30862;SDS011;17573;55.922;37.540;2023-06-26T04:45:52;32.13;;;19.08;;
30862;SDS011;17573;55.922;37.540;2023-06-26T04:48:18;26.55;;;19.33;;
30862;SDS011;17573;55.922;37.540;2023-06-26T04:50:44;31.75;;;18.70;;
30862;SDS011;17573;55.922;37.540;2023-06-26T04:53:17;32.25;;;17.05;;
30862;SDS011;17573;55.922;37.540;2023-06-26T04:55:43;30.38;;;18.02;;
30862;SDS011;17573;55.922;37.540;2023-06-26T04:58:09;29.88;;;19.05;;
30862;SDS011;17573;55.922;37.540;2023-06-26T05:00:35;32.67;;;17.58;;
30862;SDS011;17573;55.922;37.540;2023-06-26T05:03:01;32.13;;;18.17;;
30862;SDS011;17573;55.922;37.540;2023-06-26T05:05:27;30.05;;;18.55;;
30862;SDS011;17573;55.922;37.540;2023-06-26T05:07:54;25.92;;;17.58;;
30862;SDS011;17573;55.922;37.540;2023-06-26T05:10:20;23.20;;;16.15;;
30862;SDS011;17573;55.922;37.540;2023-06-26T05:12:46;22.42;;;14.13;;
30862;SDS011;17573;55.922;37.540;2023-06-26T05:15:11;32.92;;;15.90;;
30862;SDS011;17573;55.922;37.540;2023-06-26T05:17:37;21.60;;;13.32;;
30862;SDS011;17573;55.922;37.540;2023-06-26T05:20:03;22.88;;;13.05;;
30862;SDS011;17573;55.922;37.540;2023-06-26T05:22:31;22.60;;;13.90;;
30862;SDS011;17573;55.922;37.540;2023-06-26T05:24:58;21.80;;;13.48;;
30862;SDS011;17573;55.922;37.540;2023-06-26T05:27:26;27.80;;;12.57;;
30862;SDS011;17573;55.922;37.540;2023-06-26T05:29:52;27.80;;;13.82;;
30862;SDS011;17573;55.922;37.540;2023-06-26T05:32:18;18.10;;;11.65;;
30862;SDS011;17573;55.922;37.540;2023-06-26T05:34:47;16.42;;;11.98;;
30862;SDS011;17573;55.922;37.540;2023-06-26T05:37:22;20.77;;;10.25;;
30862;SDS011;17573;55.922;37.540;2023-06-26T05:39:48;12.57;;;9.50;;
30862;SDS011;17573;55.922;37.540;2023-06-26T05:42:14;12.05;;;9.75;;
30862;SDS011;17573;55.922;37.540;2023-06-26T05:44:40;14.93;;;9.98;;
30862;SDS011;17573;55.922;37.540;2023-06-26T05:47:06;18.58;;;10.10;;
30862;SDS011;17573;55.922;37.540;2023-06-26T05:49:33;17.25;;;9.13;;
30862;SDS011;17573;55.922;37.540;2023-06-26T05:51:58;20.17;;;10.20;;
30862;SDS011;17573;55.922;37.540;2023-06-26T05:54:24;11.02;;;9.38;;
30862;SDS011;17573;55.922;37.540;2023-06-26T05:56:52;9.55;;;7.82;;
30862;SDS011;17573;55.922;37.540;2023-06-26T05:59:22;11.77;;;7.82;;
30862;SDS011;17573;55.922;37.540;2023-06-26T06:01:48;8.55;;;7.18;;
30862;SDS011;17573;55.922;37.540;2023-06-26T06:04:14;20.40;;;8.63;;
30862;SDS011;17573;55.922;37.540;2023-06-26T06:06:39;23.20;;;7.97;;
30862;SDS011;17573;55.922;37.540;2023-06-26T06:09:05;11.98;;;7.53;;
30862;SDS011;17573;55.922;37.540;2023-06-26T06:11:31;29.00;;;10.45;;
30862;SDS011;17573;55.922;37.540;2023-06-26T06:13:56;13.30;;;7.60;;
30862;SDS011;17573;55.922;37.540;2023-06-26T06:16:24;14.02;;;7.90;;
30862;SDS011;17573;55.922;37.540;2023-06-26T06:18:49;17.98;;;8.05;;
30862;SDS011;17573;55.922;37.540;2023-06-26T06:21:15;9.35;;;6.85;;
30862;SDS011;17573;55.922;37.540;2023-06-26T06:23:41;15.43;;;8.45;;
30862;SDS011;17573;55.922;37.540;2023-06-26T06:26:07;11.45;;;7.80;;
30862;SDS011;17573;55.922;37.540;2023-06-26T06:28:32;12.20;;;7.88;;
30862;SDS011;17573;55.922;37.540;2023-06-26T06:30:59;14.02;;;6.72;;
30862;SDS011;17573;55.922;37.540;2023-06-26T06:33:24;14.55;;;7.82;;
30862;SDS011;17573;55.922;37.540;2023-06-26T06:35:50;23.27;;;7.85;;
30862;SDS011;17573;55.922;37.540;2023-06-26T06:38:16;20.15;;;9.25;;
30862;SDS011;17573;55.922;37.540;2023-06-26T06:40:41;13.90;;;8.07;;
30862;SDS011;17573;55.922;37.540;2023-06-26T06:43:07;13.15;;;7.38;;
30862;SDS011;17573;55.922;37.540;2023-06-26T06:45:33;10.40;;;7.53;;
30862;SDS011;17573;55.922;37.540;2023-06-26T06:47:59;8.07;;;6.07;;
30862;SDS011;17573;55.922;37.540;2023-06-26T06:50:24;27.48;;;8.30;;
30862;SDS011;17573;55.922;37.540;2023-06-26T06:52:50;25.52;;;8.35;;
30862;SDS011;17573;55.922;37.540;2023-06-26T06:55:16;26.75;;;7.97;;
30862;SDS011;17573;55.922;37.540;2023-06-26T06:57:41;18.40;;;7.03;;
30862;SDS011;17573;55.922;37.540;2023-06-26T07:00:08;15.15;;;7.28;;
30862;SDS011;17573;55.922;37.540;2023-06-26T07:02:36;10.85;;;7.47;;
30862;SDS011;17573;55.922;37.540;2023-06-26T07:05:02;10.02;;;6.72;;
30862;SDS011;17573;55.922;37.540;2023-06-26T07:07:30;10.48;;;6.68;;
30862;SDS011;17573;55.922;37.540;2023-06-26T07:10:00;15.05;;;7.50;;
30862;SDS011;17573;55.922;37.540;2023-06-26T07:12:30;19.80;;;5.53;;
30862;SDS011;17573;55.922;37.540;2023-06-26T07:14:56;9.88;;;5.63;;
30862;SDS011;17573;55.922;37.540;2023-06-26T07:17:22;9.27;;;6.00;;
30862;SDS011;17573;55.922;37.540;2023-06-26T07:19:48;11.20;;;6.60;;
30862;SDS011;17573;55.922;37.540;2023-06-26T07:22:14;14.68;;;6.30;;
30862;SDS011;17573;55.922;37.540;2023-06-26T07:24:40;10.90;;;6.18;;
30862;SDS011;17573;55.922;37.540;2023-06-26T07:27:06;23.98;;;6.97;;
30862;SDS011;17573;55.922;37.540;2023-06-26T07:29:32;8.98;;;6.18;;
30862;SDS011;17573;55.922;37.540;2023-06-26T07:31:57;10.60;;;5.70;;
30862;SDS011;17573;55.922;37.540;2023-06-26T07:34:23;7.10;;;5.40;;
30862;SDS011;17573;55.922;37.540;2023-06-26T07:36:49;19.67;;;6.22;;
30862;SDS011;17573;55.922;37.540;2023-06-26T07:39:15;14.65;;;6.85;;
30862;SDS011;17573;55.922;37.540;2023-06-26T07:41:41;12.77;;;5.80;;
30862;SDS011;17573;55.922;37.540;2023-06-26T07:44:06;12.10;;;6.60;;
30862;SDS011;17573;55.922;37.540;2023-06-26T07:46:32;18.73;;;6.70;;
30862;SDS011;17573;55.922;37.540;2023-06-26T07:48:58;7.10;;;6.40;;
30862;SDS011;17573;55.922;37.540;2023-06-26T07:51:23;8.95;;;6.88;;
30862;SDS011;17573;55.922;37.540;2023-06-26T07:53:49;12.10;;;7.13;;
30862;SDS011;17573;55.922;37.540;2023-06-26T07:56:15;15.55;;;6.78;;
30862;SDS011;17573;55.922;37.540;2023-06-26T07:58:41;15.82;;;8.18;;
30862;SDS011;17573;55.922;37.540;2023-06-26T08:01:07;9.65;;;6.43;;
30862;SDS011;17573;55.922;37.540;2023-06-26T08:03:32;12.38;;;7.38;;
30862;SDS011;17573;55.922;37.540;2023-06-26T08:05:58;13.32;;;6.40;;
30862;SDS011;17573;55.922;37.540;2023-06-26T08:08:24;20.38;;;6.22;;
30862;SDS011;17573;55.922;37.540;2023-06-26T08:10:50;9.88;;;6.45;;
30862;SDS011;17573;55.922;37.540;2023-06-26T08:13:15;12.75;;;7.18;;
30862;SDS011;17573;55.922;37.540;2023-06-26T08:15:41;8.10;;;6.15;;
30862;SDS011;17573;55.922;37.540;2023-06-26T08:18:07;10.88;;;6.57;;
30862;SDS011;17573;55.922;37.540;2023-06-26T08:20:33;18.80;;;6.22;;
30862;SDS011;17573;55.922;37.540;2023-06-26T08:23:01;11.20;;;6.70;;
30862;SDS011;17573;55.922;37.540;2023-06-26T08:25:26;12.68;;;6.60;;
30862;SDS011;17573;55.922;37.540;2023-06-26T08:27:52;8.43;;;7.28;;
30862;SDS011;17573;55.922;37.540;2023-06-26T08:30:19;17.25;;;7.32;;
30862;SDS011;17573;55.922;37.540;2023-06-26T08:32:45;10.10;;;7.30;;
30862;SDS011;17573;55.922;37.540;2023-06-26T08:35:10;10.65;;;7.53;;
30862;SDS011;17573;55.922;37.540;2023-06-26T08:37:38;14.05;;;6.70;;
30862;SDS011;17573;55.922;37.540;2023-06-26T08:40:04;14.27;;;7.30;;
30862;SDS011;17573;55.922;37.540;2023-06-26T08:42:30;10.20;;;6.47;;
30862;SDS011;17573;55.922;37.540;2023-06-26T08:44:56;8.63;;;6.25;;
30862;SDS011;17573;55.922;37.540;2023-06-26T08:47:21;7.45;;;5.95;;
30862;SDS011;17573;55.922;37.540;2023-06-26T08:52:36;5.93;;;5.32;;
30862;SDS011;17573;55.922;37.540;2023-06-26T08:55:10;9.35;;;5.95;;
30862;SDS011;17573;55.922;37.540;2023-06-26T08:57:39;8.77;;;6.65;;
30862;SDS011;17573;55.922;37.540;2023-06-26T09:00:05;19.48;;;7.38;;
30862;SDS011;17573;55.922;37.540;2023-06-26T09:02:34;15.15;;;6.53;;
30862;SDS011;17573;55.922;37.540;2023-06-26T09:05:02;7.13;;;6.20;;
30862;SDS011;17573;55.922;37.540;2023-06-26T09:07:29;13.40;;;6.82;;
30862;SDS011;17573;55.922;37.540;2023-06-26T09:09:55;7.80;;;6.50;;
30862;SDS011;17573;55.922;37.540;2023-06-26T09:12:21;8.88;;;5.32;;
30862;SDS011;17573;55.922;37.540;2023-06-26T09:14:47;24.73;;;6.63;;
30862;SDS011;17573;55.922;37.540;2023-06-26T09:17:13;12.27;;;6.63;;
30862;SDS011;17573;55.922;37.540;2023-06-26T09:19:39;25.35;;;6.30;;
30862;SDS011;17573;55.922;37.540;2023-06-26T09:22:05;18.38;;;6.35;;
30862;SDS011;17573;55.922;37.540;2023-06-26T09:27:03;8.23;;;6.57;;
30862;SDS011;17573;55.922;37.540;2023-06-26T09:29:29;26.83;;;8.05;;
30862;SDS011;17573;55.922;37.540;2023-06-26T09:31:55;35.33;;;6.35;;
30862;SDS011;17573;55.922;37.540;2023-06-26T09:34:21;21.05;;;6.50;;
30862;SDS011;17573;55.922;37.540;2023-06-26T09:36:47;10.23;;;5.47;;
30862;SDS011;17573;55.922;37.540;2023-06-26T09:39:14;10.77;;;5.70;;
30862;SDS011;17573;55.922;37.540;2023-06-26T09:41:41;8.85;;;6.25;;
30862;SDS011;17573;55.922;37.540;2023-06-26T09:44:10;15.40;;;7.10;;
30862;SDS011;17573;55.922;37.540;2023-06-26T09:46:37;22.73;;;7.05;;
30862;SDS011;17573;55.922;37.540;2023-06-26T09:49:03;13.52;;;6.78;;
30862;SDS011;17573;55.922;37.540;2023-06-26T09:51:34;10.32;;;6.55;;
30862;SDS011;17573;55.922;37.540;2023-06-26T09:54:01;19.58;;;7.80;;
30862;SDS011;17573;55.922;37.540;2023-06-26T09:56:28;25.48;;;7.60;;
30862;SDS011;17573;55.922;37.540;2023-06-26T09:58:59;26.90;;;7.47;;
30862;SDS011;17573;55.922;37.540;2023-06-26T10:01:29;17.90;;;6.82;;
30862;SDS011;17573;55.922;37.540;2023-06-26T10:03:56;18.25;;;8.27;;
30862;SDS011;17573;55.922;37.540;2023-06-26T10:08:58;15.60;;;6.75;;
30862;SDS011;17573;55.922;37.540;2023-06-26T10:11:25;13.05;;;7.07;;
30862;SDS011;17573;55.922;37.540;2023-06-26T10:13:55;9.57;;;6.82;;
30862;SDS011;17573;55.922;37.540;2023-06-26T10:16:23;15.57;;;8.65;;
30862;SDS011;17573;55.922;37.540;2023-06-26T10:18:53;16.15;;;7.18;;
30862;SDS011;17573;55.922;37.540;2023-06-26T10:21:20;15.32;;;7.28;;
30862;SDS011;17573;55.922;37.540;2023-06-26T10:23:49;21.15;;;7.43;;
30862;SDS011;17573;55.922;37.540;2023-06-26T10:26:15;22.77;;;8.25;;
30862;SDS011;17573;55.922;37.540;2023-06-26T10:28:41;19.75;;;7.55;;
30862;SDS011;17573;55.922;37.540;2023-06-26T10:31:08;16.98;;;8.25;;
30862;SDS011;17573;55.922;37.540;2023-06-26T10:33:34;14.75;;;7.13;;
30862;SDS011;17573;55.922;37.540;2023-06-26T10:36:13;13.48;;;7.28;;
30862;SDS011;17573;55.922;37.540;2023-06-26T10:41:19;9.63;;;6.80;;
30862;SDS011;17573;55.922;37.540;2023-06-26T10:43:45;8.48;;;6.50;;
30862;SDS011;17573;55.922;37.540;2023-06-26T10:46:14;9.60;;;6.40;;
30862;SDS011;17573;55.922;37.540;2023-06-26T10:48:59;8.50;;;6.45;;
30862;SDS011;17573;55.922;37.540;2023-06-26T10:51:26;13.68;;;6.93;;
30862;SDS011;17573;55.922;37.540;2023-06-26T10:53:56;8.73;;;6.05;;
30862;SDS011;17573;55.922;37.540;2023-06-26T10:56:41;8.80;;;5.75;;
30862;SDS011;17573;55.922;37.540;2023-06-26T10:59:11;6.45;;;5.35;;
30862;SDS011;17573;55.922;37.540;2023-06-26T11:01:56;8.30;;;6.10;;
30862;SDS011;17573;55.922;37.540;2023-06-26T11:07:25;46.35;;;8.57;;
30862;SDS011;17573;55.922;37.540;2023-06-26T11:09:55;23.35;;;7.35;;
30862;SDS011;17573;55.922;37.540;2023-06-26T11:12:41;14.85;;;7.00;;
30862;SDS011;17573;55.922;37.540;2023-06-26T11:15:13;19.23;;;7.72;;
30862;SDS011;17573;55.922;37.540;2023-06-26T11:17:41;9.50;;;6.93;;
30862;SDS011;17573;55.922;37.540;2023-06-26T11:20:11;30.23;;;8.38;;
30862;SDS011;17573;55.922;37.540;2023-06-26T11:22:42;9.85;;;6.55;;
30862;SDS011;17573;55.922;37.540;2023-06-26T11:25:08;18.08;;;7.40;;
30862;SDS011;17573;55.922;37.540;2023-06-26T11:30:07;16.05;;;6.88;;
30862;SDS011;17573;55.922;37.540;2023-06-26T11:32:37;20.00;;;8.60;;
30862;SDS011;17573;55.922;37.540;2023-06-26T11:35:03;13.52;;;6.65;;
30862;SDS011;17573;55.922;37.540;2023-06-26T11:37:30;8.85;;;7.55;;
30862;SDS011;17573;55.922;37.540;2023-06-26T11:39:57;19.52;;;7.32;;
30862;SDS011;17573;55.922;37.540;2023-06-26T11:42:23;13.25;;;7.63;;
30862;SDS011;17573;55.922;37.540;2023-06-26T11:44:50;12.40;;;7.72;;
30862;SDS011;17573;55.922;37.540;2023-06-26T11:47:17;9.77;;;7.20;;
30862;SDS011;17573;55.922;37.540;2023-06-26T11:49:44;14.65;;;5.60;;
30862;SDS011;17573;55.922;37.540;2023-06-26T11:52:11;6.90;;;5.13;;
30862;SDS011;17573;55.922;37.540;2023-06-26T11:54:37;5.50;;;5.00;;
30862;SDS011;17573;55.922;37.540;2023-06-26T11:57:04;8.07;;;4.70;;
30862;SDS011;17573;55.922;37.540;2023-06-26T11:59:36;12.60;;;5.68;;
30862;SDS011;17573;55.922;37.540;2023-06-26T12:02:07;11.35;;;6.90;;
30862;SDS011;17573;55.922;37.540;2023-06-26T12:04:41;19.05;;;6.25;;
30862;SDS011;17573;55.922;37.540;2023-06-26T12:07:08;14.80;;;6.35;;
30862;SDS011;17573;55.922;37.540;2023-06-26T12:09:39;55.45;;;6.55;;
30862;SDS011;17573;55.922;37.540;2023-06-26T12:12:05;16.25;;;5.90;;
30862;SDS011;17573;55.922;37.540;2023-06-26T12:14:32;19.63;;;6.43;;
30862;SDS011;17573;55.922;37.540;2023-06-26T12:17:03;16.05;;;6.68;;
30862;SDS011;17573;55.922;37.540;2023-06-26T12:19:30;9.43;;;6.93;;
30862;SDS011;17573;55.922;37.540;2023-06-26T12:21:57;18.00;;;7.10;;
30862;SDS011;17573;55.922;37.540;2023-06-26T12:24:23;16.80;;;7.05;;
30862;SDS011;17573;55.922;37.540;2023-06-26T12:26:51;22.40;;;6.40;;
30862;SDS011;17573;55.922;37.540;2023-06-26T12:29:33;8.70;;;6.65;;
30862;SDS011;17573;55.922;37.540;2023-06-26T12:31:59;16.05;;;6.85;;
30862;SDS011;17573;55.922;37.540;2023-06-26T12:34:31;8.70;;;7.05;;
30862;SDS011;17573;55.922;37.540;2023-06-26T12:37:01;9.63;;;6.88;;
30862;SDS011;17573;55.922;37.540;2023-06-26T12:39:29;10.60;;;6.18;;
30862;SDS011;17573;55.922;37.540;2023-06-26T12:41:56;12.45;;;7.72;;
30862;SDS011;17573;55.922;37.540;2023-06-26T12:44:28;16.00;;;8.35;;
30862;SDS011;17573;55.922;37.540;2023-06-26T12:46:56;17.85;;;7.15;;
30862;SDS011;17573;55.922;37.540;2023-06-26T12:49:33;14.52;;;7.30;;
30862;SDS011;17573;55.922;37.540;2023-06-26T12:52:00;20.10;;;6.38;;
30862;SDS011;17573;55.922;37.540;2023-06-26T12:54:26;12.60;;;7.18;;
30862;SDS011;17573;55.922;37.540;2023-06-26T12:56:52;10.57;;;7.03;;
30862;SDS011;17573;55.922;37.540;2023-06-26T12:59:19;22.17;;;7.82;;
30862;SDS011;17573;55.922;37.540;2023-06-26T13:01:45;10.35;;;7.03;;
30862;SDS011;17573;55.922;37.540;2023-06-26T13:04:11;13.38;;;7.05;;
30862;SDS011;17573;55.922;37.540;2023-06-26T13:06:37;9.32;;;7.00;;
30862;SDS011;17573;55.922;37.540;2023-06-26T13:09:03;11.57;;;6.50;;
30862;SDS011;17573;55.922;37.540;2023-06-26T13:11:29;11.10;;;6.18;;
30862;SDS011;17573;55.922;37.540;2023-06-26T13:13:56;13.63;;;7.45;;
30862;SDS011;17573;55.922;37.540;2023-06-26T13:16:22;13.65;;;6.78;;
30862;SDS011;17573;55.922;37.540;2023-06-26T13:18:47;19.23;;;6.55;;
30862;SDS011;17573;55.922;37.540;2023-06-26T13:21:14;11.18;;;7.05;;
30862;SDS011;17573;55.922;37.540;2023-06-26T13:23:40;13.98;;;6.40;;
30862;SDS011;17573;55.922;37.540;2023-06-26T13:26:06;18.05;;;6.28;;
30862;SDS011;17573;55.922;37.540;2023-06-26T13:28:32;15.27;;;6.53;;
30862;SDS011;17573;55.922;37.540;2023-06-26T13:30:58;19.88;;;7.50;;
30862;SDS011;17573;55.922;37.540;2023-06-26T13:33:24;13.32;;;5.50;;
30862;SDS011;17573;55.922;37.540;2023-06-26T13:35:53;11.45;;;5.20;;
30862;SDS011;17573;55.922;37.540;2023-06-26T13:38:19;14.43;;;5.82;;
30862;SDS011;17573;55.922;37.540;2023-06-26T13:40:53;10.52;;;5.78;;
30862;SDS011;17573;55.922;37.540;2023-06-26T13:43:20;13.50;;;5.38;;
30862;SDS011;17573;55.922;37.540;2023-06-26T13:45:46;9.82;;;6.00;;
30862;SDS011;17573;55.922;37.540;2023-06-26T13:48:12;8.18;;;6.72;;
30862;SDS011;17573;55.922;37.540;2023-06-26T13:50:38;12.82;;;7.88;;
30862;SDS011;17573;55.922;37.540;2023-06-26T13:53:04;15.00;;;7.15;;
30862;SDS011;17573;55.922;37.540;2023-06-26T13:55:31;22.02;;;7.43;;
30862;SDS011;17573;55.922;37.540;2023-06-26T13:57:58;23.13;;;8.18;;
30862;SDS011;17573;55.922;37.540;2023-06-26T14:00:24;20.30;;;7.82;;
30862;SDS011;17573;55.922;37.540;2023-06-26T14:02:50;11.77;;;6.40;;
30862;SDS011;17573;55.922;37.540;2023-06-26T14:05:17;16.60;;;7.20;;
30862;SDS011;17573;55.922;37.540;2023-06-26T14:07:44;13.02;;;7.70;;
30862;SDS011;17573;55.922;37.540;2023-06-26T14:10:10;14.48;;;6.57;;
30862;SDS011;17573;55.922;37.540;2023-06-26T14:12:36;16.92;;;6.70;;
30862;SDS011;17573;55.922;37.540;2023-06-26T14:15:02;15.52;;;7.15;;
30862;SDS011;17573;55.922;37.540;2023-06-26T14:17:29;17.15;;;7.47;;
30862;SDS011;17573;55.922;37.540;2023-06-26T14:19:54;19.17;;;7.15;;
30862;SDS011;17573;55.922;37.540;2023-06-26T14:22:20;16.38;;;7.32;;
30862;SDS011;17573;55.922;37.540;2023-06-26T14:24:46;11.13;;;6.43;;
30862;SDS011;17573;55.922;37.540;2023-06-26T14:27:13;13.75;;;5.65;;
30862;SDS011;17573;55.922;37.540;2023-06-26T14:29:39;16.23;;;5.15;;
30862;SDS011;17573;55.922;37.540;2023-06-26T14:32:05;6.15;;;4.88;;
30862;SDS011;17573;55.922;37.540;2023-06-26T14:34:32;11.25;;;5.20;;
30862;SDS011;17573;55.922;37.540;2023-06-26T14:36:57;10.07;;;4.65;;
30862;SDS011;17573;55.922;37.540;2023-06-26T14:39:23;9.00;;;5.75;;
30862;SDS011;17573;55.922;37.540;2023-06-26T14:41:49;15.75;;;5.05;;
30862;SDS011;17573;55.922;37.540;2023-06-26T14:44:15;8.43;;;4.68;;